Time;durP1;ratioP1;P1;durP2;ratioP2;P2;SDS_P1;SDS_P2;PMS_P1;PMS_P2;Temp;Humidity;BMP_temperature;BMP_pressure;BME280_temperature;BME280_humidity;BME280_pressure;Samples;Min_cycle;Max_cycle;Signal;HPM_P1;HPM_P2
2022/06/06 00:01:51;;;;;;;139.07;43.47;;;;;;;;;;5009151;28;20056;-68
2022/06/06 00:04:18;;;;;;;139.85;44.15;;;;;;;;;;5011053;28;20037;-69
2022/06/06 00:06:44;;;;;;;124.57;38.55;;;;;;;;;;5026092;28;20041;-70
2022/06/06 00:09:11;;;;;;;137.38;40.45;;;;;;;;;;5011239;28;20121;-70
2022/06/06 00:11:38;;;;;;;133.98;39.67;;;;;;;;;;5010411;28;20037;-68
2022/06/06 00:14:05;;;;;;;116.32;37.08;;;;;;;;;;5011105;28;20060;-68
2022/06/06 00:16:31;;;;;;;122.10;36.95;;;;;;;;;;5010621;28;20557;-70
2022/06/06 00:18:57;;;;;;;116.20;36.28;;;;;;;;;;5010868;28;20030;-69
2022/06/06 00:21:23;;;;;;;97.97;32.55;;;;;;;;;;5010007;28;20034;-69
2022/06/06 00:23:49;;;;;;;102.53;36.80;;;;;;;;;;5025836;28;20441;-70
2022/06/06 00:26:16;;;;;;;98.47;32.45;;;;;;;;;;5026010;28;20188;-70
2022/06/06 00:28:45;;;;;;;103.63;35.63;;;;;;;;;;5010239;28;20134;-70
2022/06/06 00:36:44;;;;;;;98.75;33.85;;;;;;;;;;5010822;28;20479;-68
2022/06/06 00:39:12;;;;;;;101.63;34.63;;;;;;;;;;5010563;28;20386;-69
2022/06/06 00:41:39;;;;;;;94.95;32.83;;;;;;;;;;5010073;28;20018;-69
2022/06/06 00:44:05;;;;;;;103.07;33.97;;;;;;;;;;5010622;28;20475;-69
2022/06/06 00:46:32;;;;;;;84.65;30.58;;;;;;;;;;5010633;28;20061;-70
2022/06/06 00:48:58;;;;;;;85.40;30.52;;;;;;;;;;5011272;28;20054;-68
2022/06/06 00:51:24;;;;;;;87.38;29.48;;;;;;;;;;5011173;28;20041;-69
2022/06/06 00:53:58;;;;;;;81.25;30.70;;;;;;;;;;5010881;28;20037;-67
2022/06/06 00:56:24;;;;;;;77.53;29.95;;;;;;;;;;5010828;28;20034;-68
2022/06/06 00:58:52;;;;;;;76.72;29.08;;;;;;;;;;5010963;28;20121;-68
2022/06/06 01:01:18;;;;;;;83.70;28.60;;;;;;;;;;5010789;28;20476;-68
2022/06/06 01:03:45;;;;;;;73.90;27.58;;;;;;;;;;5010885;28;20506;-68
2022/06/06 01:06:13;;;;;;;78.85;27.05;;;;;;;;;;5010792;28;20022;-69
2022/06/06 01:08:40;;;;;;;68.63;26.70;;;;;;;;;;5010915;28;20113;-68
2022/06/06 01:11:06;;;;;;;70.28;26.65;;;;;;;;;;5026104;28;20021;-69
2022/06/06 01:13:34;;;;;;;61.90;24.02;;;;;;;;;;5010413;28;20053;-69
2022/06/06 01:16:03;;;;;;;66.78;25.75;;;;;;;;;;5010312;28;20038;-70
2022/06/06 01:18:35;;;;;;;64.75;24.80;;;;;;;;;;5010464;28;20026;-67
2022/06/06 01:21:07;;;;;;;62.72;24.65;;;;;;;;;;5009079;28;20498;-68
2022/06/06 01:23:36;;;;;;;66.65;25.98;;;;;;;;;;5010347;28;20072;-69
2022/06/06 01:26:05;;;;;;;57.03;22.75;;;;;;;;;;5010085;28;20543;-70
2022/06/06 01:28:39;;;;;;;62.17;23.52;;;;;;;;;;5010058;28;20025;-69
2022/06/06 01:31:11;;;;;;;63.05;24.45;;;;;;;;;;5010138;28;20030;-68
2022/06/06 01:33:51;;;;;;;55.92;22.80;;;;;;;;;;5009897;28;20080;-68
2022/06/06 01:36:17;;;;;;;53.63;23.02;;;;;;;;;;5009953;28;20038;-69
2022/06/06 01:38:43;;;;;;;55.08;22.15;;;;;;;;;;5010002;28;20022;-68
2022/06/06 01:41:11;;;;;;;58.85;23.40;;;;;;;;;;5009687;28;20026;-68
2022/06/06 01:43:41;;;;;;;56.38;23.77;;;;;;;;;;5009851;28;20026;-70
2022/06/06 01:46:10;;;;;;;58.22;23.88;;;;;;;;;;5024593;28;20046;-69
2022/06/06 01:48:37;;;;;;;67.90;25.63;;;;;;;;;;5009855;28;20029;-69
2022/06/06 01:51:24;;;;;;;69.82;26.83;;;;;;;;;;5010020;28;20030;-68
2022/06/06 01:53:50;;;;;;;60.28;23.33;;;;;;;;;;5011052;28;20495;-67
2022/06/06 01:56:18;;;;;;;70.65;28.63;;;;;;;;;;5013663;28;20030;-68
2022/06/06 01:58:44;;;;;;;70.65;27.58;;;;;;;;;;5013948;28;20141;-69
2022/06/06 02:01:10;;;;;;;71.18;27.30;;;;;;;;;;5013648;28;20116;-68
2022/06/06 02:03:36;;;;;;;71.18;27.50;;;;;;;;;;5013722;28;20034;-68
2022/06/06 02:06:04;;;;;;;76.57;30.48;;;;;;;;;;5013958;28;20601;-69
2022/06/06 02:08:31;;;;;;;74.15;30.23;;;;;;;;;;5013738;28;20029;-69
2022/06/06 02:10:57;;;;;;;75.47;30.13;;;;;;;;;;5013700;28;20565;-69
2022/06/06 02:13:23;;;;;;;88.30;33.83;;;;;;;;;;5013739;28;20034;-69
2022/06/06 02:15:49;;;;;;;83.45;33.90;;;;;;;;;;5013602;28;20490;-69
2022/06/06 02:18:15;;;;;;;88.80;35.35;;;;;;;;;;5013914;28;20029;-69
2022/06/06 02:20:41;;;;;;;80.30;31.92;;;;;;;;;;5013833;28;20388;-69
2022/06/06 02:23:08;;;;;;;78.47;31.95;;;;;;;;;;5012714;28;20033;-68
2022/06/06 02:25:34;;;;;;;83.10;32.90;;;;;;;;;;5014231;28;20076;-68
2022/06/06 02:28:01;;;;;;;80.57;31.58;;;;;;;;;;5014195;28;20084;-69
2022/06/06 02:30:29;;;;;;;79.45;33.88;;;;;;;;;;5013730;28;20068;-69
2022/06/06 02:32:55;;;;;;;82.90;33.10;;;;;;;;;;5012510;28;20057;-69
2022/06/06 02:35:23;;;;;;;83.47;34.08;;;;;;;;;;5013730;28;20030;-68
2022/06/06 02:37:50;;;;;;;78.97;32.40;;;;;;;;;;5013408;28;20076;-68
2022/06/06 02:40:18;;;;;;;75.40;33.45;;;;;;;;;;5013740;28;20026;-68
2022/06/06 02:42:44;;;;;;;72.32;33.08;;;;;;;;;;5013252;28;20182;-68
2022/06/06 02:45:21;;;;;;;74.28;31.70;;;;;;;;;;5013003;28;20081;-68
2022/06/06 02:47:49;;;;;;;78.55;32.08;;;;;;;;;;5013389;28;20068;-68
2022/06/06 02:50:16;;;;;;;71.90;30.63;;;;;;;;;;5011498;28;20038;-69
2022/06/06 02:52:43;;;;;;;69.20;29.80;;;;;;;;;;5012642;28;20034;-69
2022/06/06 02:55:16;;;;;;;72.28;30.65;;;;;;;;;;5013166;28;20050;-69
2022/06/06 02:57:47;;;;;;;72.88;28.88;;;;;;;;;;5012376;28;20069;-69
2022/06/06 03:00:15;;;;;;;75.45;29.98;;;;;;;;;;5012902;28;20025;-69
2022/06/06 03:02:41;;;;;;;68.15;27.90;;;;;;;;;;5012814;28;20038;-69
2022/06/06 03:05:08;;;;;;;74.38;30.65;;;;;;;;;;5010691;28;20026;-69
2022/06/06 03:07:50;;;;;;;77.15;30.63;;;;;;;;;;5012465;28;20033;-70
2022/06/06 03:10:27;;;;;;;72.53;29.10;;;;;;;;;;5010923;28;20475;-69
2022/06/06 03:12:53;;;;;;;74.80;31.23;;;;;;;;;;5012339;28;20136;-69
2022/06/06 03:15:19;;;;;;;75.03;29.38;;;;;;;;;;5012452;28;20195;-69
2022/06/06 03:20:52;;;;;;;67.82;30.30;;;;;;;;;;5012664;28;20099;-69
2022/06/06 03:23:23;;;;;;;74.82;31.17;;;;;;;;;;5012364;28;20018;-69
2022/06/06 03:25:58;;;;;;;72.50;30.30;;;;;;;;;;5012152;28;20120;-69
2022/06/06 03:28:25;;;;;;;73.22;29.98;;;;;;;;;;5012348;28;20057;-69
2022/06/06 03:30:50;;;;;;;65.43;29.05;;;;;;;;;;5011963;28;20044;-69
2022/06/06 03:33:21;;;;;;;67.93;29.63;;;;;;;;;;5012713;28;20026;-67
2022/06/06 03:35:47;;;;;;;;;;;;;;;;;;5012809;28;20017;-68
2022/06/06 03:38:34;;;;;;;79.53;31.48;;;;;;;;;;5012651;28;20355;-68
2022/06/06 03:41:03;;;;;;;80.05;33.30;;;;;;;;;;5012783;28;20506;-68
2022/06/06 03:43:35;;;;;;;84.82;33.83;;;;;;;;;;5012227;28;20033;-68
2022/06/06 03:46:02;;;;;;;79.25;34.38;;;;;;;;;;5011112;28;20041;-70
2022/06/06 03:48:40;;;;;;;87.30;34.45;;;;;;;;;;5012181;28;20100;-68
2022/06/06 03:51:17;;;;;;;78.88;31.88;;;;;;;;;;5012339;28;20036;-68
2022/06/06 03:54:02;;;;;;;81.18;31.48;;;;;;;;;;5010752;28;20519;-68
2022/06/06 03:56:28;;;;;;;87.30;30.77;;;;;;;;;;5010451;28;20029;-68
2022/06/06 03:58:54;;;;;;;76.20;30.50;;;;;;;;;;5011957;28;20056;-68
2022/06/06 04:01:21;;;;;;;72.65;28.42;;;;;;;;;;5011572;28;20599;-68
2022/06/06 04:03:49;;;;;;;82.05;30.92;;;;;;;;;;5011582;28;20048;-68
2022/06/06 04:06:16;;;;;;;68.70;26.73;;;;;;;;;;5009998;28;20030;-69
2022/06/06 04:08:42;;;;;;;65.82;29.27;;;;;;;;;;5011224;28;20452;-68
2022/06/06 04:11:14;;;;;;;70.57;28.58;;;;;;;;;;5011619;28;20088;-68
2022/06/06 04:13:40;;;;;;;68.38;28.23;;;;;;;;;;5011556;28;20037;-69
2022/06/06 04:16:12;;;;;;;68.85;29.30;;;;;;;;;;5010338;28;20080;-67
2022/06/06 04:18:53;;;;;;;73.32;27.52;;;;;;;;;;5011167;28;20064;-68
2022/06/06 04:21:25;;;;;;;68.43;26.98;;;;;;;;;;5011449;28;20034;-68
2022/06/06 04:23:57;;;;;;;67.32;28.42;;;;;;;;;;5011034;28;20018;-68
2022/06/06 04:26:35;;;;;;;65.90;27.15;;;;;;;;;;5011143;28;20061;-69
2022/06/06 04:29:06;;;;;;;69.88;28.10;;;;;;;;;;5011445;28;20026;-69
2022/06/06 04:31:50;;;;;;;64.90;26.05;;;;;;;;;;5011040;28;20037;-68
2022/06/06 04:34:19;;;;;;;66.00;28.35;;;;;;;;;;5011044;28;20026;-68
2022/06/06 04:36:51;;;;;;;63.65;27.20;;;;;;;;;;5010778;28;20030;-69
2022/06/06 04:39:27;;;;;;;67.22;26.73;;;;;;;;;;5010945;28;20033;-68
2022/06/06 04:41:58;;;;;;;62.08;27.05;;;;;;;;;;5010573;28;20026;-68
2022/06/06 04:44:43;;;;;;;60.42;27.52;;;;;;;;;;5010984;28;20064;-69
2022/06/06 04:47:18;;;;;;;64.28;26.73;;;;;;;;;;5010606;28;20452;-68
2022/06/06 04:49:46;;;;;;;63.38;27.35;;;;;;;;;;5010613;28;20100;-67
2022/06/06 04:52:13;;;;;;;70.97;29.10;;;;;;;;;;5010574;28;20030;-68
2022/06/06 04:54:40;;;;;;;71.90;28.42;;;;;;;;;;5011005;28;20038;-68
2022/06/06 04:57:07;;;;;;;64.80;29.20;;;;;;;;;;5010881;28;20026;-68
2022/06/06 04:59:34;;;;;;;66.30;29.70;;;;;;;;;;5011228;28;20603;-68
2022/06/06 05:02:02;;;;;;;72.53;29.05;;;;;;;;;;5011345;28;20136;-68
2022/06/06 05:04:29;;;;;;;65.30;28.67;;;;;;;;;;5010718;28;20168;-68
2022/06/06 05:07:02;;;;;;;63.22;26.90;;;;;;;;;;5010784;28;20030;-68
2022/06/06 05:09:47;;;;;;;63.80;27.52;;;;;;;;;;5009600;28;20341;-68
2022/06/06 05:12:19;;;;;;;57.03;24.35;;;;;;;;;;5010839;28;20034;-69
2022/06/06 05:14:45;;;;;;;51.78;24.30;;;;;;;;;;5010853;28;20033;-69
2022/06/06 05:17:27;;;;;;;42.88;20.83;;;;;;;;;;5010695;28;20067;-69
2022/06/06 05:20:11;;;;;;;40.22;19.33;;;;;;;;;;5010673;28;20037;-69
2022/06/06 05:22:37;;;;;;;31.33;15.35;;;;;;;;;;5010378;28;20026;-70
2022/06/06 05:25:14;;;;;;;33.25;16.50;;;;;;;;;;5010626;28;20095;-68
2022/06/06 05:27:45;;;;;;;27.92;13.90;;;;;;;;;;5009711;28;20025;-70
2022/06/06 05:30:18;;;;;;;24.10;11.65;;;;;;;;;;5010297;28;20030;-68
2022/06/06 05:32:59;;;;;;;27.75;12.50;;;;;;;;;;5010181;28;20037;-69
2022/06/06 05:35:53;;;;;;;23.30;12.57;;;;;;;;;;5010171;28;20022;-70
2022/06/06 05:38:34;;;;;;;23.35;12.00;;;;;;;;;;5009787;28;20467;-68
2022/06/06 05:41:09;;;;;;;27.80;12.30;;;;;;;;;;5010392;28;20141;-67
2022/06/06 05:43:41;;;;;;;28.45;11.68;;;;;;;;;;5009988;28;20026;-68
2022/06/06 05:46:07;;;;;;;19.35;10.73;;;;;;;;;;5009752;28;20475;-68
2022/06/06 05:48:45;;;;;;;17.67;9.15;;;;;;;;;;5009639;28;20022;-69
2022/06/06 05:51:22;;;;;;;19.88;8.05;;;;;;;;;;5010283;28;20183;-68
2022/06/06 05:53:48;;;;;;;12.25;6.63;;;;;;;;;;5009759;28;20052;-68
2022/06/06 05:56:23;;;;;;;15.55;6.22;;;;;;;;;;5009703;28;20029;-67
2022/06/06 05:59:08;;;;;;;13.15;5.20;;;;;;;;;;5009573;28;20022;-68
2022/06/06 06:01:52;;;;;;;9.70;4.57;;;;;;;;;;5009731;28;20040;-69
2022/06/06 06:04:37;;;;;;;11.07;4.38;;;;;;;;;;5009715;28;20030;-67
2022/06/06 06:07:18;;;;;;;8.63;3.67;;;;;;;;;;5010047;28;20036;-68
2022/06/06 06:10:07;;;;;;;6.75;3.10;;;;;;;;;;5009578;28;20124;-68
2022/06/06 06:12:34;;;;;;;12.45;3.65;;;;;;;;;;5000090;28;20495;-68
2022/06/06 06:15:06;;;;;;;5.63;2.80;;;;;;;;;;5020670;28;20033;-67
2022/06/06 06:17:33;;;;;;;8.82;3.30;;;;;;;;;;5030050;28;20443;-68
2022/06/06 06:20:09;;;;;;;10.82;3.50;;;;;;;;;;5030214;28;20032;-68
2022/06/06 06:22:36;;;;;;;10.43;3.53;;;;;;;;;;5029808;28;20060;-69
2022/06/06 06:25:03;;;;;;;9.40;4.50;;;;;;;;;;5030024;28;20029;-67
2022/06/06 06:27:31;;;;;;;9.02;3.78;;;;;;;;;;5029612;28;20116;-68
2022/06/06 06:29:57;;;;;;;11.57;4.28;;;;;;;;;;5030016;28;20029;-67
2022/06/06 06:32:23;;;;;;;10.00;3.60;;;;;;;;;;5029793;28;20482;-68
2022/06/06 06:34:50;;;;;;;11.05;3.67;;;;;;;;;;5029615;28;20029;-68
2022/06/06 06:37:34;;;;;;;12.75;3.60;;;;;;;;;;5028036;28;20034;-69
2022/06/06 06:40:25;;;;;;;15.20;3.75;;;;;;;;;;5030789;28;20455;-68
2022/06/06 06:42:57;;;;;;;11.80;4.65;;;;;;;;;;5031431;28;20095;-68
2022/06/06 06:45:36;;;;;;;21.02;6.25;;;;;;;;;;5032840;28;20042;-68
2022/06/06 06:48:08;;;;;;;11.73;5.80;;;;;;;;;;5032710;28;20056;-68
2022/06/06 06:50:54;;;;;;;14.77;6.75;;;;;;;;;;5032572;28;20065;-68
2022/06/06 06:53:20;;;;;;;11.82;5.53;;;;;;;;;;5028417;28;20045;-70
2022/06/06 06:56:07;;;;;;;8.48;4.88;;;;;;;;;;5032422;28;20025;-69
2022/06/06 06:58:52;;;;;;;10.85;6.00;;;;;;;;;;5032252;28;20029;-69
2022/06/06 07:01:41;;;;;;;14.60;5.68;;;;;;;;;;5032296;28;20048;-67
2022/06/06 07:10:22;;;;;;;13.02;6.90;;;;;;;;;;5032330;28;20111;-68
2022/06/06 07:13:07;;;;;;;15.27;6.15;;;;;;;;;;5032019;28;20021;-67
2022/06/06 07:15:48;;;;;;;12.13;6.63;;;;;;;;;;5031855;28;20495;-67
2022/06/06 07:18:16;;;;;;;13.55;5.65;;;;;;;;;;5031509;28;20103;-68
2022/06/06 07:20:44;;;;;;;16.65;5.10;;;;;;;;;;5031984;28;20025;-68
2022/06/06 07:23:11;;;;;;;15.13;4.88;;;;;;;;;;5032039;28;20056;-67
2022/06/06 07:25:43;;;;;;;11.77;4.47;;;;;;;;;;5030657;28;20080;-68
2022/06/06 07:28:16;;;;;;;13.38;4.40;;;;;;;;;;5031877;28;20075;-68
2022/06/06 07:30:48;;;;;;;8.45;4.03;;;;;;;;;;5032066;28;20033;-68
2022/06/06 07:33:29;;;;;;;10.73;3.85;;;;;;;;;;5032590;28;20029;-68
2022/06/06 07:35:55;;;;;;;8.55;3.85;;;;;;;;;;5032645;28;20029;-68
2022/06/06 07:38:44;;;;;;;8.90;4.47;;;;;;;;;;5031722;28;20040;-68
2022/06/06 07:41:31;;;;;;;11.23;3.90;;;;;;;;;;5029148;28;20121;-69
2022/06/06 07:44:02;;;;;;;10.15;4.32;;;;;;;;;;5027918;28;20112;-69
2022/06/06 07:46:38;;;;;;;8.93;4.07;;;;;;;;;;5031880;28;20033;-69
2022/06/06 07:49:18;;;;;;;9.90;3.70;;;;;;;;;;5032077;28;20056;-68
2022/06/06 07:51:50;;;;;;;9.73;3.75;;;;;;;;;;5031731;28;20033;-69
2022/06/06 07:54:32;;;;;;;12.73;3.67;;;;;;;;;;5032111;28;20030;-68
2022/06/06 07:56:58;;;;;;;9.05;4.05;;;;;;;;;;5031781;28;20052;-69
2022/06/06 07:59:33;;;;;;;14.60;5.20;;;;;;;;;;5030351;28;20029;-68
2022/06/06 08:02:18;;;;;;;13.48;5.75;;;;;;;;;;5031426;28;20032;-69
2022/06/06 08:04:56;;;;;;;14.57;5.78;;;;;;;;;;5031099;28;20040;-69
2022/06/06 08:07:28;;;;;;;16.65;7.22;;;;;;;;;;5011809;28;20456;-69
2022/06/06 08:10:03;;;;;;;7.32;4.80;;;;;;;;;;5011370;28;20033;-70
2022/06/06 08:12:35;;;;;;;11.38;4.70;;;;;;;;;;5011431;28;20033;-70
2022/06/06 08:15:04;;;;;;;10.90;4.65;;;;;;;;;;5011989;28;20034;-69
2022/06/06 08:17:33;;;;;;;9.63;4.20;;;;;;;;;;5015923;28;20076;-69
2022/06/06 08:20:12;;;;;;;11.48;4.60;;;;;;;;;;5031276;28;20024;-69
2022/06/06 08:22:42;;;;;;;9.38;4.07;;;;;;;;;;5031400;28;20079;-70
2022/06/06 08:25:11;;;;;;;11.48;4.53;;;;;;;;;;5031913;28;20093;-69
2022/06/06 08:27:38;;;;;;;8.18;3.90;;;;;;;;;;5031216;28;20494;-68
2022/06/06 08:30:04;;;;;;;8.43;3.85;;;;;;;;;;5031374;28;20440;-70
2022/06/06 08:32:30;;;;;;;12.27;3.90;;;;;;;;;;5031330;28;20165;-69
2022/06/06 08:34:57;;;;;;;8.70;3.63;;;;;;;;;;5030590;28;20112;-68
2022/06/06 08:37:25;;;;;;;7.97;3.10;;;;;;;;;;5030408;28;20129;-69
2022/06/06 08:40:10;;;;;;;11.68;4.20;;;;;;;;;;5030033;28;20083;-70
2022/06/06 08:42:36;;;;;;;14.35;3.63;;;;;;;;;;5030166;28;20052;-71
2022/06/06 08:45:22;;;;;;;9.35;3.05;;;;;;;;;;5030498;28;20116;-69
2022/06/06 08:47:54;;;;;;;10.35;3.70;;;;;;;;;;5030266;28;20029;-69
2022/06/06 08:50:46;;;;;;;13.30;3.88;;;;;;;;;;5030067;28;20057;-68
2022/06/06 08:53:21;;;;;;;9.20;5.10;;;;;;;;;;5030885;28;20022;-68
2022/06/06 08:56:06;;;;;;;7.15;3.88;;;;;;;;;;5011392;28;20025;-69
2022/06/06 08:58:44;;;;;;;10.00;3.70;;;;;;;;;;5010955;28;20057;-68
2022/06/06 09:01:29;;;;;;;8.18;3.63;;;;;;;;;;5010842;28;20030;-69
2022/06/06 09:04:01;;;;;;;9.57;3.20;;;;;;;;;;5010826;28;20107;-69
2022/06/06 09:06:56;;;;;;;9.10;3.50;;;;;;;;;;5010795;28;20063;-68
2022/06/06 09:09:40;;;;;;;13.73;3.50;;;;;;;;;;5010898;28;20018;-68
2022/06/06 09:12:06;;;;;;;6.93;3.35;;;;;;;;;;5011249;28;20037;-68
2022/06/06 09:14:38;;;;;;;8.50;3.60;;;;;;;;;;5009900;28;20026;-70
2022/06/06 09:17:23;;;;;;;7.28;3.13;;;;;;;;;;5010646;28;20029;-68
2022/06/06 09:20:08;;;;;;;7.93;3.30;;;;;;;;;;5009998;28;20030;-69
2022/06/06 09:22:53;;;;;;;9.23;3.30;;;;;;;;;;5010690;28;20022;-67
2022/06/06 09:25:34;;;;;;;10.63;3.47;;;;;;;;;;5010120;28;20029;-67
2022/06/06 09:28:12;;;;;;;9.70;3.40;;;;;;;;;;5009991;28;20056;-68
2022/06/06 09:30:39;;;;;;;10.13;3.22;;;;;;;;;;5008276;28;20034;-67
2022/06/06 09:33:23;;;;;;;8.23;3.20;;;;;;;;;;5010088;28;20022;-68
2022/06/06 09:36:01;;;;;;;10.30;4.10;;;;;;;;;;5008086;28;20025;-68
2022/06/06 09:38:46;;;;;;;6.78;2.50;;;;;;;;;;5009633;28;20492;-67
2022/06/06 09:41:27;;;;;;;4.38;1.65;;;;;;;;;;5009648;28;20030;-69
2022/06/06 09:43:57;;;;;;;6.35;2.47;;;;;;;;;;5009119;28;20045;-71
2022/06/06 09:46:34;;;;;;;6.55;2.45;;;;;;;;;;5009206;28;20084;-70
2022/06/06 09:49:19;;;;;;;12.00;3.63;;;;;;;;;;5008259;28;20048;-70
2022/06/06 09:52:01;;;;;;;8.25;4.28;;;;;;;;;;5009639;28;20088;-69
2022/06/06 10:00:39;;;;;;;32.15;7.22;;;;;;;;;;5010200;28;20045;-71
2022/06/06 10:03:14;;;;;;;20.83;8.60;;;;;;;;;;5009946;28;20486;-70
2022/06/06 10:05:59;;;;;;;14.43;7.63;;;;;;;;;;5009583;28;20026;-70
2022/06/06 10:08:44;;;;;;;14.40;8.40;;;;;;;;;;5010255;28;20120;-71
2022/06/06 10:11:29;;;;;;;10.57;6.93;;;;;;;;;;5008811;28;20057;-72
2022/06/06 10:14:28;;;;;;;16.00;8.88;;;;;;;;;;5010166;28;20030;-71
2022/06/06 10:16:54;;;;;;;19.00;9.18;;;;;;;;;;5001948;28;20132;-69
2022/06/06 10:19:28;;;;;;;10.73;7.40;;;;;;;;;;5013821;28;20046;-69
2022/06/06 10:22:05;;;;;;;12.75;4.97;;;;;;;;;;5014177;28;20396;-69
2022/06/06 10:24:49;;;;;;;13.15;7.13;;;;;;;;;;5013320;28;20551;-70
2022/06/06 10:27:22;;;;;;;10.23;7.05;;;;;;;;;;5013558;28;20021;-70
2022/06/06 10:30:11;;;;;;;9.10;6.70;;;;;;;;;;5012967;28;20041;-69
2022/06/06 10:32:46;;;;;;;9.75;6.35;;;;;;;;;;5012918;28;20026;-70
2022/06/06 10:35:18;;;;;;;7.68;4.90;;;;;;;;;;5012551;28;20475;-68
2022/06/06 10:37:53;;;;;;;10.60;5.25;;;;;;;;;;5012859;28;20038;-69
2022/06/06 10:40:28;;;;;;;8.52;4.95;;;;;;;;;;5012661;28;20014;-69
2022/06/06 10:43:07;;;;;;;11.10;5.65;;;;;;;;;;5013002;28;20053;-69
2022/06/06 10:45:46;;;;;;;11.88;5.82;;;;;;;;;;5012312;28;20073;-69
2022/06/06 10:48:31;;;;;;;15.25;6.70;;;;;;;;;;5012708;28;20059;-69
2022/06/06 10:53:41;;;;;;;15.63;8.13;;;;;;;;;;5012559;28;20257;-69
2022/06/06 10:56:13;;;;;;;16.75;12.70;;;;;;;;;;5012504;28;20491;-69
2022/06/06 10:58:58;;;;;;;16.25;11.40;;;;;;;;;;5013091;28;20121;-69
2022/06/06 11:01:24;;;;;;;11.65;7.65;;;;;;;;;;5012886;28;20029;-70
2022/06/06 11:03:50;;;;;;;7.20;4.95;;;;;;;;;;5012434;28;20026;-69
2022/06/06 11:06:20;;;;;;;10.35;5.95;;;;;;;;;;5012267;28;20478;-69
2022/06/06 11:08:46;;;;;;;8.55;5.22;;;;;;;;;;5012448;28;20104;-70
2022/06/06 11:11:12;;;;;;;7.00;4.43;;;;;;;;;;5012545;28;20030;-69
2022/06/06 11:13:47;;;;;;;7.82;5.03;;;;;;;;;;5012076;28;20022;-69
2022/06/06 11:16:22;;;;;;;10.80;5.55;;;;;;;;;;5012204;28;20046;-68
2022/06/06 11:19:00;;;;;;;8.23;5.03;;;;;;;;;;5012174;28;20041;-68
2022/06/06 11:21:32;;;;;;;8.80;4.32;;;;;;;;;;5012459;28;20452;-68
2022/06/06 11:24:10;;;;;;;7.00;4.45;;;;;;;;;;5012194;28;20460;-68
2022/06/06 11:26:52;;;;;;;5.57;4.82;;;;;;;;;;5011806;28;20128;-68
2022/06/06 11:29:24;;;;;;;11.15;5.63;;;;;;;;;;5011073;28;20518;-68
2022/06/06 11:31:53;;;;;;;13.05;6.38;;;;;;;;;;5012315;28;20030;-68
2022/06/06 11:34:25;;;;;;;11.60;7.05;;;;;;;;;;5012053;28;20026;-68
2022/06/06 11:37:10;;;;;;;11.15;6.80;;;;;;;;;;5012123;28;20026;-68
2022/06/06 11:39:54;;;;;;;12.25;7.70;;;;;;;;;;5012347;28;20060;-68
2022/06/06 11:42:39;;;;;;;11.13;6.65;;;;;;;;;;5012385;28;20507;-69
2022/06/06 11:45:23;;;;;;;11.52;7.40;;;;;;;;;;5011892;28;20129;-68
2022/06/06 11:47:55;;;;;;;13.82;7.70;;;;;;;;;;5012304;28;20029;-69
2022/06/06 11:50:42;;;;;;;15.95;8.40;;;;;;;;;;5010312;28;20463;-66
2022/06/06 11:53:08;;;;;;;11.68;7.03;;;;;;;;;;5011385;28;20134;-68
2022/06/06 11:55:35;;;;;;;10.63;6.25;;;;;;;;;;5009682;28;20030;-67
2022/06/06 11:58:01;;;;;;;14.90;8.55;;;;;;;;;;5011620;28;20037;-68
2022/06/06 12:00:56;;;;;;;11.02;6.65;;;;;;;;;;5011531;28;20345;-67
2022/06/06 12:03:48;;;;;;;13.60;7.00;;;;;;;;;;5006890;28;20034;-68
2022/06/06 12:06:14;;;;;;;14.15;5.70;;;;;;;;;;5011086;28;20057;-69
2022/06/06 12:08:43;;;;;;;9.02;5.20;;;;;;;;;;5011388;28;20014;-68
2022/06/06 12:11:27;;;;;;;11.55;4.93;;;;;;;;;;5011215;28;20022;-68
2022/06/06 12:14:32;;;;;;;13.13;5.88;;;;;;;;;;5011241;28;20479;-67
2022/06/06 12:16:58;;;;;;;7.35;4.22;;;;;;;;;;4988749;28;20031;-67
2022/06/06 12:19:24;;;;;;;9.23;4.10;;;;;;;;;;4988953;28;20476;-67
2022/06/06 12:21:54;;;;;;;11.98;4.30;;;;;;;;;;4999434;28;20034;-69
2022/06/06 12:24:39;;;;;;;8.48;4.80;;;;;;;;;;5010765;28;20026;-68
2022/06/06 12:27:15;;;;;;;11.25;5.57;;;;;;;;;;5010904;28;20041;-67
2022/06/06 12:29:53;;;;;;;11.23;5.90;;;;;;;;;;5012365;28;20030;-67
2022/06/06 12:32:38;;;;;;;12.77;6.35;;;;;;;;;;5020223;28;20025;-67
2022/06/06 12:35:04;;;;;;;11.00;6.65;;;;;;;;;;5021016;28;20037;-67
2022/06/06 12:37:39;;;;;;;9.25;6.60;;;;;;;;;;5026029;28;20034;-67
2022/06/06 12:40:17;;;;;;;14.77;7.90;;;;;;;;;;5019721;28;20589;-68
2022/06/06 12:42:55;;;;;;;11.43;8.38;;;;;;;;;;5034642;28;20029;-68
2022/06/06 12:45:30;;;;;;;16.23;8.98;;;;;;;;;;5032978;28;20041;-68
2022/06/06 12:48:08;;;;;;;18.30;10.50;;;;;;;;;;5031657;28;20182;-68
2022/06/06 12:50:49;;;;;;;25.73;12.90;;;;;;;;;;5031525;28;20079;-67
2022/06/06 12:53:43;;;;;;;17.77;12.40;;;;;;;;;;5052506;28;20025;-69
2022/06/06 12:56:20;;;;;;;19.33;13.20;;;;;;;;;;5025343;28;20037;-70
2022/06/06 12:59:05;;;;;;;22.58;14.82;;;;;;;;;;5024083;28;20037;-70
2022/06/06 13:01:47;;;;;;;18.40;13.02;;;;;;;;;;5040661;28;20483;-69
2022/06/06 13:04:33;;;;;;;16.90;11.68;;;;;;;;;;5028252;28;20048;-69
2022/06/06 13:07:02;;;;;;;15.55;9.90;;;;;;;;;;5032382;28;20030;-69
2022/06/06 13:09:47;;;;;;;14.55;10.77;;;;;;;;;;5032312;28;20025;-69
2022/06/06 13:12:22;;;;;;;12.68;8.27;;;;;;;;;;5032123;28;20029;-69
2022/06/06 13:14:48;;;;;;;11.00;7.88;;;;;;;;;;5023222;28;20108;-69
2022/06/06 13:17:14;;;;;;;11.57;8.15;;;;;;;;;;5040309;28;20144;-68
2022/06/06 13:19:59;;;;;;;9.10;6.40;;;;;;;;;;5031511;28;20261;-69
2022/06/06 13:22:49;;;;;;;7.55;4.65;;;;;;;;;;5030362;28;20025;-70
2022/06/06 13:25:15;;;;;;;5.45;3.85;;;;;;;;;;5028800;28;20025;-70
2022/06/06 13:28:01;;;;;;;6.05;3.72;;;;;;;;;;5031309;28;20025;-68
2022/06/06 13:30:30;;;;;;;4.72;3.10;;;;;;;;;;5022438;28;20033;-69
2022/06/06 13:33:02;;;;;;;6.03;3.28;;;;;;;;;;5028548;28;20037;-69
2022/06/06 13:35:47;;;;;;;5.75;2.60;;;;;;;;;;5028606;28;20053;-69
2022/06/06 13:38:16;;;;;;;9.13;2.85;;;;;;;;;;5030077;28;20026;-68
2022/06/06 13:40:44;;;;;;;4.13;2.70;;;;;;;;;;5030141;28;20117;-68
2022/06/06 13:43:29;;;;;;;4.88;2.22;;;;;;;;;;5035186;28;20482;-68
2022/06/06 13:46:13;;;;;;;4.88;2.20;;;;;;;;;;5029468;28;20045;-69
2022/06/06 13:48:39;;;;;;;5.57;1.90;;;;;;;;;;5035329;28;20037;-68
2022/06/06 13:51:05;;;;;;;6.75;2.47;;;;;;;;;;5043996;28;20028;-68
2022/06/06 13:53:43;;;;;;;3.38;2.33;;;;;;;;;;5039646;28;20025;-68
2022/06/06 13:56:28;;;;;;;4.32;2.47;;;;;;;;;;5045589;28;20474;-69
2022/06/06 13:58:54;;;;;;;4.50;2.28;;;;;;;;;;5034910;28;20036;-69
2022/06/06 14:01:39;;;;;;;4.82;2.17;;;;;;;;;;5038159;28;20124;-68
2022/06/06 14:04:23;;;;;;;4.07;2.22;;;;;;;;;;5033008;28;20017;-68
2022/06/06 14:06:49;;;;;;;7.85;2.33;;;;;;;;;;5039184;28;20029;-68
2022/06/06 14:09:16;;;;;;;5.10;2.40;;;;;;;;;;5033256;28;20028;-68
2022/06/06 14:12:06;;;;;;;5.78;2.60;;;;;;;;;;5041841;28;20049;-69
2022/06/06 14:14:35;;;;;;;6.50;3.15;;;;;;;;;;5044293;28;20021;-69
2022/06/06 14:17:02;;;;;;;7.78;2.78;;;;;;;;;;5045993;28;20359;-68
2022/06/06 14:19:49;;;;;;;6.78;3.40;;;;;;;;;;5041500;28;20021;-68
2022/06/06 14:22:29;;;;;;;10.13;4.05;;;;;;;;;;5044458;28;20473;-69
2022/06/06 14:24:55;;;;;;;7.45;4.22;;;;;;;;;;5038092;28;20435;-68
2022/06/06 14:27:22;;;;;;;9.77;4.32;;;;;;;;;;5040877;28;20041;-68
2022/06/06 14:29:51;;;;;;;7.78;3.95;;;;;;;;;;5037845;28;20090;-69
2022/06/06 14:32:17;;;;;;;7.65;3.67;;;;;;;;;;5038335;28;20039;-68
2022/06/06 14:34:48;;;;;;;10.07;4.68;;;;;;;;;;5043950;28;20108;-69
2022/06/06 14:37:19;;;;;;;7.85;4.93;;;;;;;;;;5042633;28;20164;-68
2022/06/06 14:39:50;;;;;;;8.35;4.70;;;;;;;;;;5036372;28;20021;-68
2022/06/06 14:42:17;;;;;;;9.98;5.78;;;;;;;;;;5039466;28;20033;-69
2022/06/06 14:44:46;;;;;;;13.95;5.93;;;;;;;;;;5044596;28;20410;-68
2022/06/06 14:47:14;;;;;;;12.55;5.90;;;;;;;;;;5033370;28;20076;-71
2022/06/06 14:49:43;;;;;;;9.00;5.78;;;;;;;;;;5040976;28;20061;-68
2022/06/06 14:52:20;;;;;;;8.45;5.40;;;;;;;;;;5037332;28;20033;-69
2022/06/06 14:54:58;;;;;;;11.70;5.80;;;;;;;;;;5043626;28;20037;-69
2022/06/06 14:57:30;;;;;;;11.73;5.50;;;;;;;;;;5032679;28;20120;-70
2022/06/06 14:59:58;;;;;;;11.60;6.68;;;;;;;;;;5034496;28;20044;-69
2022/06/06 15:02:25;;;;;;;9.02;6.00;;;;;;;;;;5033045;28;20052;-69
2022/06/06 15:05:10;;;;;;;8.88;5.80;;;;;;;;;;5029318;28;20036;-69
2022/06/06 15:07:40;;;;;;;10.75;6.28;;;;;;;;;;5038299;28;20084;-70
2022/06/06 15:10:07;;;;;;;10.13;5.80;;;;;;;;;;5027729;28;20076;-68
2022/06/06 15:12:33;;;;;;;11.40;6.53;;;;;;;;;;5041129;28;20037;-69
2022/06/06 15:15:00;;;;;;;15.70;6.18;;;;;;;;;;5032220;28;20060;-71
2022/06/06 15:17:28;;;;;;;11.20;5.45;;;;;;;;;;5028384;28;20071;-68
2022/06/06 15:20:03;;;;;;;8.63;5.50;;;;;;;;;;5032947;28;20039;-69
2022/06/06 15:22:33;;;;;;;12.13;5.97;;;;;;;;;;5035399;28;20055;-68
2022/06/06 15:24:59;;;;;;;9.68;5.68;;;;;;;;;;5033955;28;20041;-68
2022/06/06 15:27:44;;;;;;;8.70;4.88;;;;;;;;;;5036776;28;20056;-69
2022/06/06 15:30:21;;;;;;;9.50;5.03;;;;;;;;;;5032608;28;20111;-68